createdAt,value
2018-11-03T00:02:02.023Z,7.00
2018-11-03T00:04:33.539Z,7.80
2018-11-03T00:07:04.767Z,7.30
2018-11-03T00:09:35.930Z,6.60
2018-11-03T00:12:07.227Z,6.97
2018-11-03T00:14:38.302Z,7.03
2018-11-03T00:17:09.548Z,7.07
2018-11-03T00:19:40.893Z,6.97
2018-11-03T00:22:11.883Z,7.87
2018-11-03T00:24:43.075Z,8.20
2018-11-03T00:27:14.080Z,8.47
2018-11-03T00:29:45.247Z,7.50
2018-11-03T00:32:16.456Z,8.87
2018-11-03T00:34:48.338Z,7.70
2018-11-03T00:37:19.654Z,8.17
2018-11-03T00:39:51.134Z,8.03
2018-11-03T00:42:22.399Z,7.43
2018-11-03T00:44:53.595Z,7.40
2018-11-03T00:47:25.084Z,7.13
2018-11-03T00:49:56.872Z,7.77
2018-11-03T00:52:28.156Z,7.63
2018-11-03T00:54:59.579Z,7.20
2018-11-03T00:57:30.967Z,6.90
2018-11-03T01:00:02.138Z,7.30
2018-11-03T01:02:33.331Z,7.37
2018-11-03T01:05:04.591Z,7.40
2018-11-03T01:07:36.387Z,7.93
2018-11-03T01:10:07.463Z,8.00
2018-11-03T01:12:39.356Z,8.27
2018-11-03T01:15:16.170Z,7.83
2018-11-03T01:17:47.646Z,7.70
2018-11-03T01:20:18.976Z,7.60
2018-11-03T01:22:49.944Z,7.50
2018-11-03T01:25:21.136Z,7.67
2018-11-03T01:27:52.310Z,7.80
2018-11-03T01:30:26.755Z,7.60
2018-11-03T01:32:58.037Z,7.50
2018-11-03T01:35:29.231Z,7.47
2018-11-03T01:38:00.292Z,7.40
2018-11-03T01:40:31.446Z,7.87
2018-11-03T01:43:02.611Z,7.30
2018-11-03T01:45:33.822Z,8.37
2018-11-03T01:48:04.830Z,7.57
2018-11-03T01:50:36.028Z,8.20
2018-11-03T01:53:07.317Z,8.20
2018-11-03T01:55:39.269Z,8.23
2018-11-03T01:58:10.606Z,8.03
2018-11-03T02:00:41.553Z,8.03
2018-11-03T02:03:12.739Z,7.93
2018-11-03T02:05:43.978Z,8.80
2018-11-03T02:08:15.422Z,7.40
2018-11-03T02:10:46.698Z,8.23
2018-11-03T02:13:17.902Z,8.10
2018-11-03T02:15:49.095Z,8.27
2018-11-03T02:18:20.271Z,8.53
2018-11-03T02:20:51.439Z,8.70
2018-11-03T02:23:22.675Z,8.43
2018-11-03T02:25:53.874Z,8.20
2018-11-03T02:28:25.039Z,8.60
2018-11-03T02:30:56.540Z,8.00
2018-11-03T02:33:27.827Z,8.00
2018-11-03T02:35:58.826Z,8.40
2018-11-03T02:38:30.491Z,8.03
2018-11-03T02:41:01.809Z,8.43
2018-11-03T02:43:32.985Z,8.37
2018-11-03T02:46:04.456Z,8.13
2018-11-03T02:48:35.783Z,7.97
2018-11-03T02:51:06.951Z,8.70
2018-11-03T02:53:38.032Z,9.23
2018-11-03T02:56:09.374Z,8.33
2018-11-03T02:58:40.576Z,8.20
2018-11-03T03:01:11.547Z,8.10
2018-11-03T03:03:42.847Z,7.50
2018-11-03T03:06:14.107Z,6.83
2018-11-03T03:08:45.355Z,6.80
2018-11-03T03:11:16.480Z,6.60
2018-11-03T03:13:48.135Z,6.73
2018-11-03T03:16:19.486Z,6.60
2018-11-03T03:18:50.950Z,7.47
2018-11-03T03:21:22.054Z,6.30
2018-11-03T03:23:53.250Z,7.40
2018-11-03T03:26:24.440Z,7.83
2018-11-03T03:28:55.925Z,8.10
2018-11-03T03:31:27.223Z,8.77
2018-11-03T03:33:58.420Z,8.33
2018-11-03T03:36:29.405Z,8.80
2018-11-03T03:39:00.927Z,9.37
2018-11-03T03:41:32.225Z,8.90
2018-11-03T03:44:03.438Z,8.37
2018-11-03T03:46:35.306Z,8.87
2018-11-03T03:49:06.652Z,9.37
2018-11-03T03:51:38.241Z,9.13
2018-11-03T03:54:09.522Z,9.00
2018-11-03T03:56:41.059Z,8.93
2018-11-03T03:59:12.587Z,8.97
2018-11-03T04:01:44.642Z,8.20
2018-11-03T04:04:15.706Z,9.27
2018-11-03T04:06:47.401Z,8.40
2018-11-03T04:09:18.940Z,8.30
2018-11-03T04:11:50.260Z,8.53
2018-11-03T04:14:21.263Z,9.13
2018-11-03T04:16:52.822Z,8.20
2018-11-03T04:19:23.779Z,9.30
2018-11-03T04:21:55.567Z,9.57
2018-11-03T04:24:27.367Z,9.63
2018-11-03T04:26:58.581Z,9.13
2018-11-03T04:29:29.738Z,9.60
2018-11-03T04:32:00.956Z,9.60
2018-11-03T04:34:31.922Z,8.77
2018-11-03T04:37:03.130Z,8.07
2018-11-03T04:39:34.144Z,8.17
2018-11-03T04:42:05.355Z,7.53
2018-11-03T04:44:37.000Z,8.27
2018-11-03T04:47:08.867Z,8.20
2018-11-03T04:49:40.194Z,9.70
2018-11-03T04:52:11.490Z,9.83
2018-11-03T04:54:42.843Z,10.40
2018-11-03T04:57:14.541Z,9.63
2018-11-03T04:59:45.693Z,9.23
2018-11-03T05:02:17.025Z,10.23
2018-11-03T05:04:48.202Z,11.30
2018-11-03T05:07:19.391Z,10.37
2018-11-03T05:09:50.633Z,11.60
2018-11-03T05:12:21.581Z,10.43
2018-11-03T05:14:53.606Z,11.33
2018-11-03T05:17:25.175Z,11.57
2018-11-03T05:19:56.349Z,11.17
2018-11-03T05:22:27.529Z,10.43
2018-11-03T05:24:59.023Z,10.73
2018-11-03T05:27:30.315Z,10.50
2018-11-03T05:30:01.809Z,10.27
2018-11-03T05:32:33.083Z,10.07
2018-11-03T05:35:04.400Z,11.13
2018-11-03T05:37:35.669Z,10.77
2018-11-03T05:40:06.964Z,11.50
2018-11-03T05:42:38.056Z,11.60
2018-11-03T05:45:10.077Z,12.53
2018-11-03T05:47:41.493Z,14.03
2018-11-03T05:50:12.672Z,13.87
2018-11-03T05:52:43.995Z,15.43
2018-11-03T05:55:15.181Z,15.20
2018-11-03T05:57:46.383Z,15.00
2018-11-03T06:00:17.394Z,16.43
2018-11-03T06:02:48.893Z,17.50
2018-11-03T06:05:20.166Z,16.37
2018-11-03T06:07:51.157Z,16.47
2018-11-03T06:10:22.331Z,16.67
2018-11-03T06:12:53.341Z,15.73
2018-11-03T06:15:24.622Z,14.63
2018-11-03T06:17:55.537Z,15.07
2018-11-03T06:20:27.549Z,15.20
2018-11-03T06:22:59.071Z,14.63
2018-11-03T06:25:30.289Z,14.97
2018-11-03T06:28:01.713Z,14.43
2018-11-03T06:30:33.366Z,14.13
2018-11-03T06:33:04.649Z,15.30
2018-11-03T06:35:35.847Z,14.10
2018-11-03T06:38:07.018Z,15.40
2018-11-03T06:40:38.031Z,16.13
2018-11-03T06:43:09.715Z,14.80
2018-11-03T06:45:40.846Z,14.77
2018-11-03T06:48:11.986Z,15.20
2018-11-03T06:50:43.183Z,18.87
2018-11-03T06:53:14.206Z,17.70
2018-11-03T06:55:45.212Z,16.97
2018-11-03T06:58:16.212Z,17.83
2018-11-03T07:00:47.391Z,16.93
2018-11-03T07:03:18.570Z,16.83
2018-11-03T07:05:49.559Z,16.70
2018-11-03T07:08:20.743Z,17.67
2018-11-03T07:10:51.948Z,18.53
2018-11-03T07:13:23.567Z,17.27
2018-11-03T07:15:54.720Z,16.30
2018-11-03T07:18:25.903Z,17.07
2018-11-03T07:20:57.091Z,18.73
2018-11-03T07:23:28.240Z,18.17
2018-11-03T07:25:59.309Z,16.03
2018-11-03T07:28:30.533Z,15.30
2018-11-03T07:31:01.754Z,16.27
2018-11-03T07:33:33.051Z,17.10
2018-11-03T07:36:04.326Z,16.10
2018-11-03T07:38:35.434Z,16.63
2018-11-03T07:41:07.016Z,17.37
2018-11-03T07:43:38.515Z,16.07
2018-11-03T07:46:10.109Z,15.27
2018-11-03T07:48:41.290Z,15.23
2018-11-03T07:51:12.574Z,15.83
2018-11-03T07:53:43.882Z,15.83
2018-11-03T07:56:14.987Z,17.40
2018-11-03T07:58:46.355Z,16.47
2018-11-03T08:01:17.547Z,14.90
2018-11-03T08:03:48.734Z,15.73
2018-11-03T08:06:20.139Z,16.17
2018-11-03T08:08:51.379Z,15.50
2018-11-03T08:11:22.349Z,15.30
2018-11-03T08:13:53.581Z,15.13
2018-11-03T08:16:24.709Z,15.83
2018-11-03T08:18:55.946Z,16.27
2018-11-03T08:21:27.284Z,16.33
2018-11-03T08:23:58.899Z,16.57
2018-11-03T08:26:30.888Z,16.77
2018-11-03T08:29:02.744Z,14.53
2018-11-03T08:31:33.870Z,14.60
2018-11-03T08:34:05.047Z,16.43
2018-11-03T08:36:35.996Z,14.73
2018-11-03T08:39:09.220Z,14.27
2018-11-03T08:41:40.590Z,14.60
2018-11-03T08:44:11.709Z,14.27
2018-11-03T08:46:42.733Z,13.73
2018-11-03T08:49:13.938Z,13.30
2018-11-03T08:51:44.918Z,12.77
2018-11-03T08:54:16.167Z,13.33
2018-11-03T08:56:47.323Z,13.23
2018-11-03T08:59:18.519Z,12.93
2018-11-03T09:01:49.832Z,13.97
2018-11-03T09:04:21.092Z,13.60
2018-11-03T09:06:52.311Z,13.03
2018-11-03T09:09:23.490Z,13.40
2018-11-03T09:11:54.993Z,13.60
2018-11-03T09:14:26.041Z,12.37
2018-11-03T09:16:57.260Z,14.10
2018-11-03T09:19:28.446Z,13.33
2018-11-03T09:21:59.829Z,15.47
2018-11-03T09:24:31.059Z,13.23
2018-11-03T09:27:02.213Z,12.60
2018-11-03T09:29:33.206Z,13.00
2018-11-03T09:32:04.581Z,13.13
2018-11-03T09:34:35.845Z,13.67
2018-11-03T09:37:07.775Z,13.73
2018-11-03T09:39:38.946Z,13.23
2018-11-03T09:42:09.951Z,12.30
2018-11-03T09:44:41.449Z,12.73
2018-11-03T09:47:12.504Z,10.90
2018-11-03T09:49:44.024Z,11.43
2018-11-03T09:52:15.303Z,9.97
2018-11-03T09:54:46.339Z,10.70
2018-11-03T09:57:17.505Z,14.57
2018-11-03T09:59:48.724Z,11.40
2018-11-03T10:02:19.867Z,12.33
2018-11-03T10:04:51.376Z,10.27
2018-11-03T10:07:22.692Z,10.43
2018-11-03T10:09:54.190Z,9.77
2018-11-03T10:12:25.439Z,9.10
2018-11-03T10:14:56.631Z,9.97
2018-11-03T10:17:28.115Z,8.90
2018-11-03T10:19:59.420Z,9.40
2018-11-03T10:22:31.447Z,9.80
2018-11-03T10:25:02.878Z,9.70
2018-11-03T10:27:34.151Z,9.20
2018-11-03T10:30:05.440Z,10.67
2018-11-03T10:32:37.592Z,9.30
2018-11-03T10:35:09.511Z,10.10
2018-11-03T10:37:41.299Z,10.13
2018-11-03T10:40:14.914Z,9.67
2018-11-03T10:42:46.511Z,9.20
2018-11-03T10:45:17.921Z,9.63
2018-11-03T10:47:49.478Z,8.90
2018-11-03T10:50:20.788Z,9.80
2018-11-03T10:52:51.767Z,8.47
2018-11-03T10:55:22.819Z,8.90
2018-11-03T10:57:53.995Z,8.33
2018-11-03T11:00:29.889Z,8.03
2018-11-03T11:03:06.285Z,7.90
2018-11-03T11:05:44.810Z,7.13
2018-11-03T11:08:20.893Z,7.23
2018-11-03T11:10:57.077Z,7.60
2018-11-03T11:13:29.615Z,7.27
2018-11-03T11:16:01.341Z,7.30
2018-11-03T11:18:32.712Z,6.50
2018-11-03T11:21:04.023Z,7.03
2018-11-03T11:23:35.290Z,6.40
2018-11-03T11:26:06.521Z,6.30
2018-11-03T11:28:37.587Z,6.00
2018-11-03T11:31:08.816Z,6.03
2018-11-03T11:33:39.944Z,6.43
2018-11-03T11:36:11.207Z,6.07
2018-11-03T11:38:42.587Z,6.83
2018-11-03T11:41:13.757Z,6.03
2018-11-03T11:43:44.781Z,5.50
2018-11-03T11:46:16.114Z,5.63
2018-11-03T11:48:47.312Z,6.00
2018-11-03T11:51:18.786Z,5.80
2018-11-03T11:53:50.580Z,5.73
2018-11-03T11:56:22.560Z,6.20
2018-11-03T11:58:53.850Z,5.60
2018-11-03T12:01:25.033Z,6.30
2018-11-03T12:03:56.051Z,6.43
2018-11-03T12:06:27.014Z,6.13
2018-11-03T12:08:58.213Z,5.30
2018-11-03T12:11:29.455Z,5.70
2018-11-03T12:14:00.608Z,5.63
2018-11-03T12:16:31.796Z,5.50
2018-11-03T12:19:03.023Z,5.30
2018-11-03T12:21:34.172Z,5.20
2018-11-03T12:24:05.876Z,5.70
2018-11-03T12:26:37.156Z,6.40
2018-11-03T12:29:08.738Z,6.77
2018-11-03T12:31:39.925Z,6.20
2018-11-03T12:34:11.129Z,6.20
2018-11-03T12:36:42.107Z,6.47
2018-11-03T12:39:13.360Z,5.90
2018-11-03T12:41:44.602Z,6.33
2018-11-03T12:44:15.694Z,6.07
2018-11-03T12:46:46.872Z,5.80
2018-11-03T12:49:18.215Z,5.83
2018-11-03T12:51:49.326Z,6.47
2018-11-03T12:54:20.651Z,5.93
2018-11-03T12:56:52.437Z,6.63
2018-11-03T12:59:23.720Z,6.40
2018-11-03T13:01:55.091Z,5.77
2018-11-03T13:04:26.402Z,6.13
2018-11-03T13:06:58.065Z,5.60
2018-11-03T13:09:29.189Z,6.23
2018-11-03T13:12:00.880Z,5.83
2018-11-03T13:14:31.954Z,6.37
2018-11-03T13:17:03.240Z,6.00
2018-11-03T13:19:35.232Z,5.87
2018-11-03T13:22:06.565Z,6.10
2018-11-03T13:24:38.030Z,5.97
2018-11-03T13:27:09.345Z,5.50
2018-11-03T13:29:40.475Z,5.70
2018-11-03T13:32:11.498Z,5.90
2018-11-03T13:34:42.508Z,5.70
2018-11-03T13:37:13.745Z,5.80
2018-11-03T13:39:45.586Z,8.33
2018-11-03T13:42:17.000Z,11.10
2018-11-03T13:44:48.537Z,7.63
2018-11-03T13:47:19.916Z,7.47
2018-11-03T13:49:51.055Z,8.00
2018-11-03T13:52:22.870Z,6.90
2018-11-03T13:54:54.034Z,7.17
2018-11-03T13:57:25.171Z,7.63
2018-11-03T13:59:56.371Z,7.03
2018-11-03T14:02:27.609Z,7.13
2018-11-03T14:04:58.928Z,7.23
2018-11-03T14:07:30.464Z,7.70
2018-11-03T14:10:02.033Z,7.30
2018-11-03T14:12:33.466Z,7.27
2018-11-03T14:15:05.006Z,7.70
2018-11-03T14:17:36.975Z,7.10
2018-11-03T14:20:10.158Z,7.33
2018-11-03T14:22:42.250Z,7.33
2018-11-03T14:25:14.407Z,7.00
2018-11-03T14:27:46.563Z,7.27
2018-11-03T14:30:17.752Z,7.37
2018-11-03T14:32:48.786Z,7.20
2018-11-03T14:35:19.939Z,7.63
2018-11-03T14:37:50.931Z,6.97
2018-11-03T14:40:21.931Z,7.10
2018-11-03T14:42:53.410Z,7.50
2018-11-03T14:45:24.806Z,8.03
2018-11-03T14:47:56.088Z,7.60
2018-11-03T14:50:32.688Z,7.67
2018-11-03T14:53:04.015Z,8.07
2018-11-03T14:55:35.172Z,8.10
2018-11-03T14:58:06.436Z,8.43
2018-11-03T15:00:38.657Z,8.00
2018-11-03T15:03:10.047Z,8.27
2018-11-03T15:05:41.128Z,8.23
2018-11-03T15:08:12.319Z,8.47
2018-11-03T15:10:43.518Z,9.17
2018-11-03T15:13:14.807Z,9.43
2018-11-03T15:15:46.091Z,11.13
2018-11-03T15:18:18.051Z,8.17
2018-11-03T15:20:49.316Z,16.13
2018-11-03T15:23:20.456Z,19.33
2018-11-03T15:25:51.648Z,14.73
2018-11-03T15:28:22.826Z,19.83
2018-11-03T15:30:54.017Z,18.80
2018-11-03T15:33:25.017Z,35.13
2018-11-03T15:35:56.331Z,14.57
2018-11-03T15:38:27.590Z,10.20
2018-11-03T15:40:58.795Z,9.80
2018-11-03T15:43:29.847Z,10.70
2018-11-03T15:46:01.192Z,8.97
2018-11-03T15:48:32.385Z,10.13
2018-11-03T15:51:03.590Z,11.17
2018-11-03T15:53:34.763Z,9.73
2018-11-03T15:56:06.191Z,9.70
2018-11-03T15:58:37.143Z,9.93
2018-11-03T16:01:08.144Z,10.00
2018-11-03T16:03:39.331Z,9.33
2018-11-03T16:06:10.527Z,9.73
2018-11-03T16:08:41.712Z,9.93
2018-11-03T16:11:12.908Z,11.67
2018-11-03T16:13:44.525Z,11.13
2018-11-03T16:16:16.077Z,11.57
2018-11-03T16:18:47.067Z,11.57
2018-11-03T16:21:18.261Z,10.67
2018-11-03T16:23:49.447Z,10.77
2018-11-03T16:26:20.647Z,11.73
2018-11-03T16:28:52.124Z,10.80
2018-11-03T16:31:23.426Z,11.00
2018-11-03T16:33:54.787Z,10.70
2018-11-03T16:36:25.823Z,11.13
2018-11-03T16:38:56.991Z,11.63
2018-11-03T16:41:28.426Z,10.73
2018-11-03T16:43:59.420Z,10.40
2018-11-03T16:46:30.591Z,11.53
2018-11-03T16:49:01.759Z,12.53
2018-11-03T16:51:32.966Z,13.97
2018-11-03T16:54:04.160Z,14.93
2018-11-03T16:56:35.653Z,16.67
2018-11-03T16:59:07.321Z,19.73
2018-11-03T17:01:38.502Z,20.37
2018-11-03T17:04:09.576Z,19.87
2018-11-03T17:06:40.952Z,21.20
2018-11-03T17:09:11.907Z,20.10
2018-11-03T17:11:43.072Z,17.87
2018-11-03T17:19:03.900Z,15.10
2018-11-03T17:21:35.066Z,15.87
2018-11-03T17:24:06.959Z,21.10
2018-11-03T17:26:38.251Z,22.10
2018-11-03T17:29:09.440Z,21.00
2018-11-03T17:31:40.420Z,19.57
2018-11-03T17:34:11.611Z,18.93
2018-11-03T17:36:42.799Z,18.03
2018-11-03T17:39:13.991Z,18.13
2018-11-03T17:41:45.286Z,18.67
2018-11-03T17:44:16.714Z,20.80
2018-11-03T17:46:48.272Z,19.13
2018-11-03T17:49:19.612Z,17.40
2018-11-03T17:51:50.664Z,18.60
2018-11-03T17:54:21.767Z,17.57
2018-11-03T17:56:52.946Z,16.40
2018-11-03T17:59:24.124Z,17.47
2018-11-03T18:01:55.531Z,18.23
2018-11-03T18:04:26.895Z,18.10
2018-11-03T18:06:57.906Z,18.10
2018-11-03T18:09:29.282Z,17.87
2018-11-03T18:12:00.481Z,18.03
2018-11-03T18:14:31.541Z,19.20
2018-11-03T18:17:02.684Z,19.00
2018-11-03T18:19:33.868Z,19.63
2018-11-03T18:22:05.135Z,19.73
2018-11-03T18:24:36.279Z,19.67
2018-11-03T18:27:07.703Z,19.80
2018-11-03T18:29:39.020Z,19.70
2018-11-03T18:32:10.257Z,20.07
2018-11-03T18:34:41.275Z,20.23
2018-11-03T18:37:12.419Z,22.87
2018-11-03T18:39:43.579Z,25.67
2018-11-03T18:42:14.657Z,27.13
2018-11-03T18:44:45.988Z,25.33
2018-11-03T18:47:17.414Z,24.73
2018-11-03T18:49:48.562Z,24.57
2018-11-03T18:52:19.756Z,24.57
2018-11-03T18:54:50.959Z,23.50
2018-11-03T18:57:22.152Z,24.47
2018-11-03T18:59:53.150Z,24.60
2018-11-03T19:02:24.641Z,24.50
2018-11-03T19:04:55.715Z,25.97
2018-11-03T19:07:26.954Z,35.27
2018-11-03T19:09:58.127Z,36.73
2018-11-03T19:12:30.171Z,37.30
2018-11-03T19:15:01.517Z,65.00
2018-11-03T19:17:32.656Z,67.57
2018-11-03T19:20:04.148Z,74.30
2018-11-03T19:22:35.494Z,121.80
2018-11-03T19:25:07.951Z,110.70
2018-11-03T19:27:39.325Z,57.80
2018-11-03T19:30:12.385Z,40.53
2018-11-03T19:32:44.743Z,40.23
2018-11-03T19:35:15.739Z,38.50
2018-11-03T19:37:46.710Z,43.27
2018-11-03T19:40:17.907Z,41.37
2018-11-03T19:42:48.944Z,38.93
2018-11-03T19:45:20.150Z,41.47
2018-11-03T19:47:51.303Z,34.73
2018-11-03T19:50:22.463Z,34.70
2018-11-03T19:52:53.475Z,34.77
2018-11-03T19:55:24.755Z,33.63
2018-11-03T19:57:56.347Z,35.33
2018-11-03T20:00:27.738Z,34.73
2018-11-03T20:02:58.855Z,33.80
2018-11-03T20:05:30.011Z,31.73
2018-11-03T20:08:01.250Z,30.77
2018-11-03T20:10:32.392Z,29.53
2018-11-03T20:13:03.767Z,30.47
2018-11-03T20:15:35.871Z,32.53
2018-11-03T20:18:06.993Z,36.07
2018-11-03T20:20:38.311Z,35.17
2018-11-03T20:23:09.546Z,37.80
2018-11-03T20:25:40.735Z,38.83
2018-11-03T20:28:11.924Z,38.93
2018-11-03T20:30:42.925Z,37.07
2018-11-03T20:33:14.135Z,35.63
2018-11-03T20:35:45.124Z,37.17
2018-11-03T20:38:16.308Z,37.67
2018-11-03T20:40:47.511Z,38.30
2018-11-03T20:43:18.861Z,39.90
2018-11-03T20:45:50.075Z,43.37
2018-11-03T20:48:21.079Z,43.47
2018-11-03T20:50:57.346Z,40.30
2018-11-03T20:53:28.610Z,41.97
2018-11-03T20:55:59.582Z,38.13
2018-11-03T20:58:30.744Z,39.90
2018-11-03T21:01:01.769Z,43.73
2018-11-03T21:03:32.970Z,47.63
2018-11-03T21:06:04.160Z,54.70
2018-11-03T21:08:35.351Z,52.73
2018-11-03T21:11:06.484Z,54.47
2018-11-03T21:13:37.881Z,52.27
2018-11-03T21:16:08.919Z,66.00
2018-11-03T21:18:40.140Z,62.10
2018-11-03T21:21:11.279Z,61.07
2018-11-03T21:23:42.376Z,72.67
2018-11-03T21:26:13.492Z,58.90
2018-11-03T21:28:44.671Z,54.40
2018-11-03T21:31:16.150Z,53.40
2018-11-03T21:33:47.256Z,49.73
2018-11-03T21:36:18.435Z,45.37
2018-11-03T21:38:49.497Z,44.07
2018-11-03T21:41:20.665Z,44.67
2018-11-03T21:43:51.674Z,43.77
2018-11-03T21:46:22.839Z,45.60
2018-11-03T21:48:53.811Z,44.00
2018-11-03T21:51:24.799Z,42.87
2018-11-03T21:53:55.983Z,42.60
2018-11-03T21:56:27.379Z,44.27
2018-11-03T21:58:58.375Z,43.00
2018-11-03T22:01:29.943Z,42.10
2018-11-03T22:04:00.948Z,44.13
2018-11-03T22:06:33.037Z,43.70
2018-11-03T22:09:05.728Z,41.97
2018-11-03T22:11:36.874Z,43.43
2018-11-03T22:14:08.223Z,43.67
2018-11-03T22:16:39.284Z,42.17
2018-11-03T22:19:10.476Z,41.73
2018-11-03T22:21:41.512Z,42.53
2018-11-03T22:24:12.902Z,42.00
2018-11-03T22:26:44.128Z,41.97
2018-11-03T22:29:15.222Z,41.67
2018-11-03T22:31:47.262Z,46.87
2018-11-03T22:34:18.405Z,50.03
2018-11-03T22:36:49.411Z,55.33
2018-11-03T22:39:21.034Z,54.63
2018-11-03T22:41:52.282Z,53.13
2018-11-03T22:44:23.562Z,53.47
2018-11-03T22:46:54.788Z,48.90
2018-11-03T22:49:25.960Z,46.27
2018-11-03T22:51:57.250Z,45.40
2018-11-03T22:54:28.524Z,44.97
2018-11-03T22:57:00.058Z,47.73
2018-11-03T22:59:31.656Z,43.50
2018-11-03T23:02:02.758Z,40.60
2018-11-03T23:04:34.140Z,39.30
2018-11-03T23:07:05.165Z,38.87
2018-11-03T23:09:36.492Z,38.37
2018-11-03T23:12:07.515Z,40.93
2018-11-03T23:14:38.467Z,42.70
2018-11-03T23:17:09.663Z,45.30
2018-11-03T23:19:41.056Z,47.40
2018-11-03T23:22:12.315Z,49.37
2018-11-03T23:24:43.429Z,51.33
2018-11-03T23:27:14.665Z,52.03
2018-11-03T23:29:46.014Z,54.70
2018-11-03T23:32:17.194Z,87.30
2018-11-03T23:34:48.411Z,103.13
2018-11-03T23:37:19.596Z,79.77
2018-11-03T23:39:51.074Z,59.87
2018-11-03T23:42:22.158Z,45.00
2018-11-03T23:44:53.384Z,40.33
2018-11-03T23:47:24.583Z,38.00
2018-11-03T23:49:55.753Z,35.63
2018-11-03T23:52:31.883Z,33.70
2018-11-03T23:55:04.957Z,31.63
2018-11-03T23:57:36.320Z,32.00
